sensor_id;sensor_type;location;lat;lon;timestamp;P1;durP1;ratioP1;P2;durP2;ratioP2
17949;SDS011;9100;48.700;9.316;2022-11-15T00:00:07;8.6;;;7.8;;
17949;SDS011;9100;48.700;9.316;2022-11-15T00:01:07;8.6;;;7.8;;
17949;SDS011;9100;48.700;9.316;2022-11-15T00:02:06;8.6;;;7.8;;
17949;SDS011;9100;48.700;9.316;2022-11-15T00:03:06;8.6;;;7.8;;
17949;SDS011;9100;48.700;9.316;2022-11-15T00:04:06;8.6;;;7.8;;
17949;SDS011;9100;48.700;9.316;2022-11-15T00:04:12;12.9;;;7.4;;
17949;SDS011;9100;48.700;9.316;2022-11-15T00:05:06;12.9;;;7.4;;
17949;SDS011;9100;48.700;9.316;2022-11-15T00:06:06;12.9;;;7.4;;
17949;SDS011;9100;48.700;9.316;2022-11-15T00:07:06;12.9;;;7.4;;
17949;SDS011;9100;48.700;9.316;2022-11-15T00:08:06;12.9;;;7.4;;
17949;SDS011;9100;48.700;9.316;2022-11-15T00:09:06;12.9;;;7.4;;
17949;SDS011;9100;48.700;9.316;2022-11-15T00:09:12;8.7;;;8;;
17949;SDS011;9100;48.700;9.316;2022-11-15T00:10:06;8.7;;;8;;
17949;SDS011;9100;48.700;9.316;2022-11-15T00:11:07;8.7;;;8;;
17949;SDS011;9100;48.700;9.316;2022-11-15T00:12:06;8.7;;;8;;
17949;SDS011;9100;48.700;9.316;2022-11-15T00:13:07;8.7;;;8;;
17949;SDS011;9100;48.700;9.316;2022-11-15T00:14:06;8.7;;;8;;
17949;SDS011;9100;48.700;9.316;2022-11-15T00:14:12;7.9;;;7.2;;
17949;SDS011;9100;48.700;9.316;2022-11-15T00:15:07;7.9;;;7.2;;
17949;SDS011;9100;48.700;9.316;2022-11-15T00:16:06;7.9;;;7.2;;
17949;SDS011;9100;48.700;9.316;2022-11-15T00:17:06;7.9;;;7.2;;
17949;SDS011;9100;48.700;9.316;2022-11-15T00:18:10;7.9;;;7.2;;
17949;SDS011;9100;48.700;9.316;2022-11-15T00:19:06;7.9;;;7.2;;
17949;SDS011;9100;48.700;9.316;2022-11-15T00:19:12;8.8;;;7.9;;
17949;SDS011;9100;48.700;9.316;2022-11-15T00:20:07;8.8;;;7.9;;
17949;SDS011;9100;48.700;9.316;2022-11-15T00:21:07;8.8;;;7.9;;
17949;SDS011;9100;48.700;9.316;2022-11-15T00:22:06;8.8;;;7.9;;
17949;SDS011;9100;48.700;9.316;2022-11-15T00:23:06;8.8;;;7.9;;
17949;SDS011;9100;48.700;9.316;2022-11-15T00:24:06;8.8;;;7.9;;
17949;SDS011;9100;48.700;9.316;2022-11-15T00:24:12;18.3;;;7.9;;
17949;SDS011;9100;48.700;9.316;2022-11-15T00:25:06;18.3;;;7.9;;
17949;SDS011;9100;48.700;9.316;2022-11-15T00:26:06;18.3;;;7.9;;
17949;SDS011;9100;48.700;9.316;2022-11-15T00:27:06;18.3;;;7.9;;
17949;SDS011;9100;48.700;9.316;2022-11-15T00:28:06;18.3;;;7.9;;
17949;SDS011;9100;48.700;9.316;2022-11-15T00:29:06;18.3;;;7.9;;
17949;SDS011;9100;48.700;9.316;2022-11-15T00:29:12;8.2;;;7.3;;
17949;SDS011;9100;48.700;9.316;2022-11-15T00:30:06;8.2;;;7.3;;
17949;SDS011;9100;48.700;9.316;2022-11-15T00:31:07;8.2;;;7.3;;
17949;SDS011;9100;48.700;9.316;2022-11-15T00:32:06;8.2;;;7.3;;
17949;SDS011;9100;48.700;9.316;2022-11-15T00:33:06;8.2;;;7.3;;
17949;SDS011;9100;48.700;9.316;2022-11-15T00:34:06;8.2;;;7.3;;
17949;SDS011;9100;48.700;9.316;2022-11-15T00:34:12;7.7;;;7;;
17949;SDS011;9100;48.700;9.316;2022-11-15T00:35:06;7.7;;;7;;
17949;SDS011;9100;48.700;9.316;2022-11-15T00:36:07;7.7;;;7;;
17949;SDS011;9100;48.700;9.316;2022-11-15T00:37:06;7.7;;;7;;
17949;SDS011;9100;48.700;9.316;2022-11-15T00:38:06;7.7;;;7;;
17949;SDS011;9100;48.700;9.316;2022-11-15T00:39:06;7.7;;;7;;
17949;SDS011;9100;48.700;9.316;2022-11-15T00:39:12;8;;;7.2;;
17949;SDS011;9100;48.700;9.316;2022-11-15T00:40:07;8;;;7.2;;
17949;SDS011;9100;48.700;9.316;2022-11-15T00:41:07;8;;;7.2;;
17949;SDS011;9100;48.700;9.316;2022-11-15T00:42:07;8;;;7.2;;
17949;SDS011;9100;48.700;9.316;2022-11-15T00:43:06;8;;;7.2;;
17949;SDS011;9100;48.700;9.316;2022-11-15T00:44:06;8;;;7.2;;
17949;SDS011;9100;48.700;9.316;2022-11-15T00:44:12;8.1;;;6.8;;
17949;SDS011;9100;48.700;9.316;2022-11-15T00:45:07;8.1;;;6.8;;
17949;SDS011;9100;48.700;9.316;2022-11-15T00:46:06;8.1;;;6.8;;
17949;SDS011;9100;48.700;9.316;2022-11-15T00:47:06;8.1;;;6.8;;
17949;SDS011;9100;48.700;9.316;2022-11-15T00:48:07;8.1;;;6.8;;
17949;SDS011;9100;48.700;9.316;2022-11-15T00:49:06;8.1;;;6.8;;
17949;SDS011;9100;48.700;9.316;2022-11-15T00:49:12;7.4;;;6.5;;
17949;SDS011;9100;48.700;9.316;2022-11-15T00:50:06;7.4;;;6.5;;
17949;SDS011;9100;48.700;9.316;2022-11-15T00:51:06;7.4;;;6.5;;
17949;SDS011;9100;48.700;9.316;2022-11-15T00:52:06;7.4;;;6.5;;
17949;SDS011;9100;48.700;9.316;2022-11-15T00:53:06;7.4;;;6.5;;
17949;SDS011;9100;48.700;9.316;2022-11-15T00:54:06;7.4;;;6.5;;
17949;SDS011;9100;48.700;9.316;2022-11-15T00:54:12;7.9;;;7;;
17949;SDS011;9100;48.700;9.316;2022-11-15T00:55:07;7.9;;;7;;
17949;SDS011;9100;48.700;9.316;2022-11-15T00:56:07;7.9;;;7;;
17949;SDS011;9100;48.700;9.316;2022-11-15T00:57:06;7.9;;;7;;
17949;SDS011;9100;48.700;9.316;2022-11-15T00:58:06;7.9;;;7;;
17949;SDS011;9100;48.700;9.316;2022-11-15T00:59:06;7.9;;;7;;
17949;SDS011;9100;48.700;9.316;2022-11-15T00:59:12;6.8;;;6.1;;
17949;SDS011;9100;48.700;9.316;2022-11-15T01:00:07;6.8;;;6.1;;
17949;SDS011;9100;48.700;9.316;2022-11-15T01:01:08;6.8;;;6.1;;
17949;SDS011;9100;48.700;9.316;2022-11-15T01:02:06;6.8;;;6.1;;
17949;SDS011;9100;48.700;9.316;2022-11-15T01:03:06;6.8;;;6.1;;
17949;SDS011;9100;48.700;9.316;2022-11-15T01:04:06;6.8;;;6.1;;
17949;SDS011;9100;48.700;9.316;2022-11-15T01:04:12;7.2;;;6.3;;
17949;SDS011;9100;48.700;9.316;2022-11-15T01:05:07;7.2;;;6.3;;
17949;SDS011;9100;48.700;9.316;2022-11-15T01:06:07;7.2;;;6.3;;
17949;SDS011;9100;48.700;9.316;2022-11-15T01:07:06;7.2;;;6.3;;
17949;SDS011;9100;48.700;9.316;2022-11-15T01:08:10;7.2;;;6.3;;
17949;SDS011;9100;48.700;9.316;2022-11-15T01:09:06;7.2;;;6.3;;
17949;SDS011;9100;48.700;9.316;2022-11-15T01:09:12;9.2;;;6.7;;
17949;SDS011;9100;48.700;9.316;2022-11-15T01:10:06;9.2;;;6.7;;
17949;SDS011;9100;48.700;9.316;2022-11-15T01:11:07;9.2;;;6.7;;
17949;SDS011;9100;48.700;9.316;2022-11-15T01:12:06;9.2;;;6.7;;
17949;SDS011;9100;48.700;9.316;2022-11-15T01:13:06;9.2;;;6.7;;
17949;SDS011;9100;48.700;9.316;2022-11-15T01:14:06;9.2;;;6.7;;
17949;SDS011;9100;48.700;9.316;2022-11-15T01:14:12;7.1;;;6.2;;
17949;SDS011;9100;48.700;9.316;2022-11-15T01:15:07;7.1;;;6.2;;
17949;SDS011;9100;48.700;9.316;2022-11-15T01:16:07;7.1;;;6.2;;
17949;SDS011;9100;48.700;9.316;2022-11-15T01:17:06;7.1;;;6.2;;
17949;SDS011;9100;48.700;9.316;2022-11-15T01:18:07;7.1;;;6.2;;
17949;SDS011;9100;48.700;9.316;2022-11-15T01:19:06;7.1;;;6.2;;
17949;SDS011;9100;48.700;9.316;2022-11-15T01:19:12;6.9;;;6.3;;
17949;SDS011;9100;48.700;9.316;2022-11-15T01:20:07;6.9;;;6.3;;
17949;SDS011;9100;48.700;9.316;2022-11-15T01:21:07;6.9;;;6.3;;
17949;SDS011;9100;48.700;9.316;2022-11-15T01:22:06;6.9;;;6.3;;
17949;SDS011;9100;48.700;9.316;2022-11-15T01:23:06;6.9;;;6.3;;
17949;SDS011;9100;48.700;9.316;2022-11-15T01:24:07;6.9;;;6.3;;
17949;SDS011;9100;48.700;9.316;2022-11-15T01:24:12;7.5;;;6.8;;
17949;SDS011;9100;48.700;9.316;2022-11-15T01:25:06;7.5;;;6.8;;
17949;SDS011;9100;48.700;9.316;2022-11-15T01:26:07;7.5;;;6.8;;
17949;SDS011;9100;48.700;9.316;2022-11-15T01:27:06;7.5;;;6.8;;
17949;SDS011;9100;48.700;9.316;2022-11-15T01:28:06;7.5;;;6.8;;
17949;SDS011;9100;48.700;9.316;2022-11-15T01:29:06;7.5;;;6.8;;
17949;SDS011;9100;48.700;9.316;2022-11-15T01:29:12;9.6;;;7.9;;
17949;SDS011;9100;48.700;9.316;2022-11-15T01:30:07;9.6;;;7.9;;
17949;SDS011;9100;48.700;9.316;2022-11-15T01:31:07;9.6;;;7.9;;
17949;SDS011;9100;48.700;9.316;2022-11-15T01:32:06;9.6;;;7.9;;
17949;SDS011;9100;48.700;9.316;2022-11-15T01:33:06;9.6;;;7.9;;
17949;SDS011;9100;48.700;9.316;2022-11-15T01:34:06;9.6;;;7.9;;
17949;SDS011;9100;48.700;9.316;2022-11-15T01:34:12;8;;;6.5;;
17949;SDS011;9100;48.700;9.316;2022-11-15T01:35:07;8;;;6.5;;
17949;SDS011;9100;48.700;9.316;2022-11-15T01:36:07;8;;;6.5;;
17949;SDS011;9100;48.700;9.316;2022-11-15T01:37:06;8;;;6.5;;
17949;SDS011;9100;48.700;9.316;2022-11-15T01:38:06;8;;;6.5;;
17949;SDS011;9100;48.700;9.316;2022-11-15T01:39:07;8;;;6.5;;
17949;SDS011;9100;48.700;9.316;2022-11-15T01:39:12;8.1;;;7.3;;
17949;SDS011;9100;48.700;9.316;2022-11-15T01:40:07;8.1;;;7.3;;
17949;SDS011;9100;48.700;9.316;2022-11-15T01:41:11;8.1;;;7.3;;
17949;SDS011;9100;48.700;9.316;2022-11-15T01:42:08;8.1;;;7.3;;
17949;SDS011;9100;48.700;9.316;2022-11-15T01:43:22;8.1;;;7.3;;
17949;SDS011;9100;48.700;9.316;2022-11-15T01:44:31;6.6;;;6;;
17949;SDS011;9100;48.700;9.316;2022-11-15T01:44:40;8.1;;;7.3;;
17949;SDS011;9100;48.700;9.316;2022-11-15T01:45:07;6.6;;;6;;
17949;SDS011;9100;48.700;9.316;2022-11-15T01:46:10;6.6;;;6;;
17949;SDS011;9100;48.700;9.316;2022-11-15T01:47:07;6.6;;;6;;
17949;SDS011;9100;48.700;9.316;2022-11-15T01:48:07;6.6;;;6;;
17949;SDS011;9100;48.700;9.316;2022-11-15T01:49:10;6.6;;;6;;
17949;SDS011;9100;48.700;9.316;2022-11-15T01:49:13;6.9;;;6.3;;
17949;SDS011;9100;48.700;9.316;2022-11-15T01:50:08;6.9;;;6.3;;
17949;SDS011;9100;48.700;9.316;2022-11-15T01:51:07;6.9;;;6.3;;
17949;SDS011;9100;48.700;9.316;2022-11-15T01:52:07;6.9;;;6.3;;
17949;SDS011;9100;48.700;9.316;2022-11-15T01:53:06;6.9;;;6.3;;
17949;SDS011;9100;48.700;9.316;2022-11-15T01:54:07;6.9;;;6.3;;
17949;SDS011;9100;48.700;9.316;2022-11-15T01:54:13;9.3;;;6.7;;
17949;SDS011;9100;48.700;9.316;2022-11-15T01:55:07;9.3;;;6.7;;
17949;SDS011;9100;48.700;9.316;2022-11-15T01:56:07;9.3;;;6.7;;
17949;SDS011;9100;48.700;9.316;2022-11-15T01:57:07;9.3;;;6.7;;
17949;SDS011;9100;48.700;9.316;2022-11-15T01:58:06;9.3;;;6.7;;
17949;SDS011;9100;48.700;9.316;2022-11-15T01:59:06;9.3;;;6.7;;
17949;SDS011;9100;48.700;9.316;2022-11-15T01:59:12;6.9;;;6.2;;
17949;SDS011;9100;48.700;9.316;2022-11-15T02:00:07;6.9;;;6.2;;
17949;SDS011;9100;48.700;9.316;2022-11-15T02:01:06;6.9;;;6.2;;
17949;SDS011;9100;48.700;9.316;2022-11-15T02:02:06;6.9;;;6.2;;
17949;SDS011;9100;48.700;9.316;2022-11-15T02:03:06;6.9;;;6.2;;
17949;SDS011;9100;48.700;9.316;2022-11-15T02:04:07;6.9;;;6.2;;
17949;SDS011;9100;48.700;9.316;2022-11-15T02:04:13;10.5;;;6.2;;
17949;SDS011;9100;48.700;9.316;2022-11-15T02:05:07;10.5;;;6.2;;
17949;SDS011;9100;48.700;9.316;2022-11-15T02:06:06;10.5;;;6.2;;
17949;SDS011;9100;48.700;9.316;2022-11-15T02:07:06;10.5;;;6.2;;
17949;SDS011;9100;48.700;9.316;2022-11-15T02:08:06;10.5;;;6.2;;
17949;SDS011;9100;48.700;9.316;2022-11-15T02:09:06;10.5;;;6.2;;
17949;SDS011;9100;48.700;9.316;2022-11-15T02:09:12;8.1;;;5.8;;
17949;SDS011;9100;48.700;9.316;2022-11-15T02:10:07;8.1;;;5.8;;
17949;SDS011;9100;48.700;9.316;2022-11-15T02:11:07;8.1;;;5.8;;
17949;SDS011;9100;48.700;9.316;2022-11-15T02:12:07;8.1;;;5.8;;
17949;SDS011;9100;48.700;9.316;2022-11-15T02:13:06;8.1;;;5.8;;
17949;SDS011;9100;48.700;9.316;2022-11-15T02:14:06;8.1;;;5.8;;
17949;SDS011;9100;48.700;9.316;2022-11-15T02:14:12;6.8;;;6.2;;
17949;SDS011;9100;48.700;9.316;2022-11-15T02:15:06;6.8;;;6.2;;
17949;SDS011;9100;48.700;9.316;2022-11-15T02:16:08;6.8;;;6.2;;
17949;SDS011;9100;48.700;9.316;2022-11-15T02:17:10;6.8;;;6.2;;
17949;SDS011;9100;48.700;9.316;2022-11-15T02:18:09;6.8;;;6.2;;
17949;SDS011;9100;48.700;9.316;2022-11-15T02:19:09;6.8;;;6.2;;
17949;SDS011;9100;48.700;9.316;2022-11-15T02:19:15;9.9;;;5.7;;
17949;SDS011;9100;48.700;9.316;2022-11-15T02:20:14;9.9;;;5.7;;
17949;SDS011;9100;48.700;9.316;2022-11-15T02:21:10;9.9;;;5.7;;
17949;SDS011;9100;48.700;9.316;2022-11-15T02:22:10;9.9;;;5.7;;
17949;SDS011;9100;48.700;9.316;2022-11-15T02:23:14;9.9;;;5.7;;
17949;SDS011;9100;48.700;9.316;2022-11-15T02:24:16;9.9;;;5.7;;
17949;SDS011;9100;48.700;9.316;2022-11-15T02:24:21;6.1;;;5.6;;
17949;SDS011;9100;48.700;9.316;2022-11-15T02:25:10;6.1;;;5.6;;
17949;SDS011;9100;48.700;9.316;2022-11-15T02:26:13;6.1;;;5.6;;
17949;SDS011;9100;48.700;9.316;2022-11-15T02:27:12;6.1;;;5.6;;
17949;SDS011;9100;48.700;9.316;2022-11-15T02:28:10;6.1;;;5.6;;
17949;SDS011;9100;48.700;9.316;2022-11-15T02:29:07;6.1;;;5.6;;
17949;SDS011;9100;48.700;9.316;2022-11-15T02:29:12;6.3;;;5.8;;
17949;SDS011;9100;48.700;9.316;2022-11-15T02:30:23;6.3;;;5.8;;
17949;SDS011;9100;48.700;9.316;2022-11-15T02:31:07;6.3;;;5.8;;
17949;SDS011;9100;48.700;9.316;2022-11-15T02:32:07;6.3;;;5.8;;
17949;SDS011;9100;48.700;9.316;2022-11-15T02:33:09;6.3;;;5.8;;
17949;SDS011;9100;48.700;9.316;2022-11-15T02:34:08;6.3;;;5.8;;
17949;SDS011;9100;48.700;9.316;2022-11-15T02:34:16;8;;;5.7;;
17949;SDS011;9100;48.700;9.316;2022-11-15T02:35:08;8;;;5.7;;
17949;SDS011;9100;48.700;9.316;2022-11-15T02:36:08;8;;;5.7;;
17949;SDS011;9100;48.700;9.316;2022-11-15T02:37:07;8;;;5.7;;
17949;SDS011;9100;48.700;9.316;2022-11-15T02:38:07;8;;;5.7;;
17949;SDS011;9100;48.700;9.316;2022-11-15T02:39:08;8;;;5.7;;
17949;SDS011;9100;48.700;9.316;2022-11-15T02:39:14;7.8;;;5.3;;
17949;SDS011;9100;48.700;9.316;2022-11-15T02:40:07;7.8;;;5.3;;
17949;SDS011;9100;48.700;9.316;2022-11-15T02:41:08;7.8;;;5.3;;
17949;SDS011;9100;48.700;9.316;2022-11-15T02:42:07;7.8;;;5.3;;
17949;SDS011;9100;48.700;9.316;2022-11-15T02:43:07;7.8;;;5.3;;
17949;SDS011;9100;48.700;9.316;2022-11-15T02:44:07;7.8;;;5.3;;
17949;SDS011;9100;48.700;9.316;2022-11-15T02:44:13;5.9;;;5.3;;
17949;SDS011;9100;48.700;9.316;2022-11-15T02:45:07;5.9;;;5.3;;
17949;SDS011;9100;48.700;9.316;2022-11-15T02:46:07;5.9;;;5.3;;
17949;SDS011;9100;48.700;9.316;2022-11-15T02:47:07;5.9;;;5.3;;
17949;SDS011;9100;48.700;9.316;2022-11-15T02:48:06;5.9;;;5.3;;
17949;SDS011;9100;48.700;9.316;2022-11-15T02:49:06;5.9;;;5.3;;
17949;SDS011;9100;48.700;9.316;2022-11-15T02:49:12;5.4;;;4.9;;
17949;SDS011;9100;48.700;9.316;2022-11-15T02:50:07;5.4;;;4.9;;
17949;SDS011;9100;48.700;9.316;2022-11-15T02:51:06;5.4;;;4.9;;
17949;SDS011;9100;48.700;9.316;2022-11-15T02:52:06;5.4;;;4.9;;
17949;SDS011;9100;48.700;9.316;2022-11-15T02:53:07;5.4;;;4.9;;
17949;SDS011;9100;48.700;9.316;2022-11-15T02:54:06;5.4;;;4.9;;
17949;SDS011;9100;48.700;9.316;2022-11-15T02:54:13;5.8;;;5.3;;
17949;SDS011;9100;48.700;9.316;2022-11-15T02:55:25;5.8;;;5.3;;
17949;SDS011;9100;48.700;9.316;2022-11-15T02:56:07;5.8;;;5.3;;
17949;SDS011;9100;48.700;9.316;2022-11-15T02:57:10;5.8;;;5.3;;
17949;SDS011;9100;48.700;9.316;2022-11-15T02:58:13;5.8;;;5.3;;
17949;SDS011;9100;48.700;9.316;2022-11-15T02:59:12;5.8;;;5.3;;
17949;SDS011;9100;48.700;9.316;2022-11-15T02:59:19;5.6;;;5.1;;
17949;SDS011;9100;48.700;9.316;2022-11-15T03:00:08;5.6;;;5.1;;
17949;SDS011;9100;48.700;9.316;2022-11-15T03:01:08;5.6;;;5.1;;
17949;SDS011;9100;48.700;9.316;2022-11-15T03:02:11;5.6;;;5.1;;
17949;SDS011;9100;48.700;9.316;2022-11-15T03:03:14;5.6;;;5.1;;
17949;SDS011;9100;48.700;9.316;2022-11-15T03:04:09;5.6;;;5.1;;
17949;SDS011;9100;48.700;9.316;2022-11-15T03:04:15;6.3;;;5.4;;
17949;SDS011;9100;48.700;9.316;2022-11-15T03:05:09;6.3;;;5.4;;
17949;SDS011;9100;48.700;9.316;2022-11-15T03:06:09;6.3;;;5.4;;
17949;SDS011;9100;48.700;9.316;2022-11-15T03:07:07;6.3;;;5.4;;
17949;SDS011;9100;48.700;9.316;2022-11-15T03:08:08;6.3;;;5.4;;
17949;SDS011;9100;48.700;9.316;2022-11-15T03:09:07;6.3;;;5.4;;
17949;SDS011;9100;48.700;9.316;2022-11-15T03:09:13;6.3;;;5.7;;
17949;SDS011;9100;48.700;9.316;2022-11-15T03:10:08;6.3;;;5.7;;
17949;SDS011;9100;48.700;9.316;2022-11-15T03:11:07;6.3;;;5.7;;
17949;SDS011;9100;48.700;9.316;2022-11-15T03:12:07;6.3;;;5.7;;
17949;SDS011;9100;48.700;9.316;2022-11-15T03:13:08;6.3;;;5.7;;
17949;SDS011;9100;48.700;9.316;2022-11-15T03:14:08;6.3;;;5.7;;
17949;SDS011;9100;48.700;9.316;2022-11-15T03:14:14;8.3;;;5.6;;
17949;SDS011;9100;48.700;9.316;2022-11-15T03:15:08;8.3;;;5.6;;
17949;SDS011;9100;48.700;9.316;2022-11-15T03:16:09;8.3;;;5.6;;
17949;SDS011;9100;48.700;9.316;2022-11-15T03:17:08;8.3;;;5.6;;
17949;SDS011;9100;48.700;9.316;2022-11-15T03:18:08;8.3;;;5.6;;
17949;SDS011;9100;48.700;9.316;2022-11-15T03:19:08;8.3;;;5.6;;
17949;SDS011;9100;48.700;9.316;2022-11-15T03:19:13;7.8;;;6.3;;
17949;SDS011;9100;48.700;9.316;2022-11-15T03:20:07;7.8;;;6.3;;
17949;SDS011;9100;48.700;9.316;2022-11-15T03:21:07;7.8;;;6.3;;
17949;SDS011;9100;48.700;9.316;2022-11-15T03:22:07;7.8;;;6.3;;
17949;SDS011;9100;48.700;9.316;2022-11-15T03:23:08;7.8;;;6.3;;
17949;SDS011;9100;48.700;9.316;2022-11-15T03:24:07;7.8;;;6.3;;
17949;SDS011;9100;48.700;9.316;2022-11-15T03:24:12;6.9;;;5.8;;
17949;SDS011;9100;48.700;9.316;2022-11-15T03:25:08;6.9;;;5.8;;
17949;SDS011;9100;48.700;9.316;2022-11-15T03:26:08;6.9;;;5.8;;
17949;SDS011;9100;48.700;9.316;2022-11-15T03:27:07;6.9;;;5.8;;
17949;SDS011;9100;48.700;9.316;2022-11-15T03:28:06;6.9;;;5.8;;
17949;SDS011;9100;48.700;9.316;2022-11-15T03:29:08;6.9;;;5.8;;
17949;SDS011;9100;48.700;9.316;2022-11-15T03:29:13;5.6;;;5.2;;
17949;SDS011;9100;48.700;9.316;2022-11-15T03:30:07;5.6;;;5.2;;
17949;SDS011;9100;48.700;9.316;2022-11-15T03:31:06;5.6;;;5.2;;
17949;SDS011;9100;48.700;9.316;2022-11-15T03:32:07;5.6;;;5.2;;
17949;SDS011;9100;48.700;9.316;2022-11-15T03:33:06;5.6;;;5.2;;
17949;SDS011;9100;48.700;9.316;2022-11-15T03:34:07;5.6;;;5.2;;
17949;SDS011;9100;48.700;9.316;2022-11-15T03:34:13;6.3;;;5.4;;
17949;SDS011;9100;48.700;9.316;2022-11-15T03:35:08;6.3;;;5.4;;
17949;SDS011;9100;48.700;9.316;2022-11-15T03:36:06;6.3;;;5.4;;
17949;SDS011;9100;48.700;9.316;2022-11-15T03:37:06;6.3;;;5.4;;
17949;SDS011;9100;48.700;9.316;2022-11-15T03:38:08;6.3;;;5.4;;
17949;SDS011;9100;48.700;9.316;2022-11-15T03:39:07;6.3;;;5.4;;
17949;SDS011;9100;48.700;9.316;2022-11-15T03:39:12;8.6;;;5.6;;
17949;SDS011;9100;48.700;9.316;2022-11-15T03:40:07;8.6;;;5.6;;
17949;SDS011;9100;48.700;9.316;2022-11-15T03:41:07;8.6;;;5.6;;
17949;SDS011;9100;48.700;9.316;2022-11-15T03:42:08;8.6;;;5.6;;
17949;SDS011;9100;48.700;9.316;2022-11-15T03:43:08;8.6;;;5.6;;
17949;SDS011;9100;48.700;9.316;2022-11-15T03:44:10;8.6;;;5.6;;
17949;SDS011;9100;48.700;9.316;2022-11-15T03:44:14;5.8;;;5.3;;
17949;SDS011;9100;48.700;9.316;2022-11-15T03:45:08;5.8;;;5.3;;
17949;SDS011;9100;48.700;9.316;2022-11-15T03:46:07;5.8;;;5.3;;
17949;SDS011;9100;48.700;9.316;2022-11-15T03:47:07;5.8;;;5.3;;
17949;SDS011;9100;48.700;9.316;2022-11-15T03:48:08;5.8;;;5.3;;
17949;SDS011;9100;48.700;9.316;2022-11-15T03:49:07;5.8;;;5.3;;
17949;SDS011;9100;48.700;9.316;2022-11-15T03:49:13;5.5;;;5;;
17949;SDS011;9100;48.700;9.316;2022-11-15T03:50:07;5.5;;;5;;
17949;SDS011;9100;48.700;9.316;2022-11-15T03:51:06;5.5;;;5;;
17949;SDS011;9100;48.700;9.316;2022-11-15T03:52:06;5.5;;;5;;
17949;SDS011;9100;48.700;9.316;2022-11-15T03:53:07;5.5;;;5;;
17949;SDS011;9100;48.700;9.316;2022-11-15T03:54:07;5.5;;;5;;
17949;SDS011;9100;48.700;9.316;2022-11-15T03:54:12;6.2;;;5.7;;
17949;SDS011;9100;48.700;9.316;2022-11-15T03:55:07;6.2;;;5.7;;
17949;SDS011;9100;48.700;9.316;2022-11-15T03:56:06;6.2;;;5.7;;
17949;SDS011;9100;48.700;9.316;2022-11-15T03:57:06;6.2;;;5.7;;
17949;SDS011;9100;48.700;9.316;2022-11-15T03:58:07;6.2;;;5.7;;
17949;SDS011;9100;48.700;9.316;2022-11-15T03:59:06;6.2;;;5.7;;
17949;SDS011;9100;48.700;9.316;2022-11-15T03:59:12;5.9;;;5.4;;
17949;SDS011;9100;48.700;9.316;2022-11-15T04:00:07;5.9;;;5.4;;
17949;SDS011;9100;48.700;9.316;2022-11-15T04:01:07;5.9;;;5.4;;
17949;SDS011;9100;48.700;9.316;2022-11-15T04:02:06;5.9;;;5.4;;
17949;SDS011;9100;48.700;9.316;2022-11-15T04:03:07;5.9;;;5.4;;
17949;SDS011;9100;48.700;9.316;2022-11-15T04:04:06;5.9;;;5.4;;
17949;SDS011;9100;48.700;9.316;2022-11-15T04:04:12;6.1;;;5.5;;
17949;SDS011;9100;48.700;9.316;2022-11-15T04:05:07;6.1;;;5.5;;
17949;SDS011;9100;48.700;9.316;2022-11-15T04:06:06;6.1;;;5.5;;
17949;SDS011;9100;48.700;9.316;2022-11-15T04:07:06;6.1;;;5.5;;
17949;SDS011;9100;48.700;9.316;2022-11-15T04:08:07;6.1;;;5.5;;
17949;SDS011;9100;48.700;9.316;2022-11-15T04:09:06;6.1;;;5.5;;
17949;SDS011;9100;48.700;9.316;2022-11-15T04:09:12;6;;;5.5;;
17949;SDS011;9100;48.700;9.316;2022-11-15T04:10:07;6;;;5.5;;
17949;SDS011;9100;48.700;9.316;2022-11-15T04:11:06;6;;;5.5;;
17949;SDS011;9100;48.700;9.316;2022-11-15T04:12:06;6;;;5.5;;
17949;SDS011;9100;48.700;9.316;2022-11-15T04:13:07;6;;;5.5;;
17949;SDS011;9100;48.700;9.316;2022-11-15T04:14:06;6;;;5.5;;
17949;SDS011;9100;48.700;9.316;2022-11-15T04:14:12;6.2;;;5.7;;
17949;SDS011;9100;48.700;9.316;2022-11-15T04:15:07;6.2;;;5.7;;
17949;SDS011;9100;48.700;9.316;2022-11-15T04:16:06;6.2;;;5.7;;
17949;SDS011;9100;48.700;9.316;2022-11-15T04:17:06;6.2;;;5.7;;
17949;SDS011;9100;48.700;9.316;2022-11-15T04:18:06;6.2;;;5.7;;
17949;SDS011;9100;48.700;9.316;2022-11-15T04:19:06;6.2;;;5.7;;
17949;SDS011;9100;48.700;9.316;2022-11-15T04:19:12;6.3;;;5.7;;
17949;SDS011;9100;48.700;9.316;2022-11-15T04:20:08;6.3;;;5.7;;
17949;SDS011;9100;48.700;9.316;2022-11-15T04:21:07;6.3;;;5.7;;
17949;SDS011;9100;48.700;9.316;2022-11-15T04:22:07;6.3;;;5.7;;
17949;SDS011;9100;48.700;9.316;2022-11-15T04:23:08;6.3;;;5.7;;
17949;SDS011;9100;48.700;9.316;2022-11-15T04:24:06;6.3;;;5.7;;
17949;SDS011;9100;48.700;9.316;2022-11-15T04:24:12;6.1;;;5.5;;
17949;SDS011;9100;48.700;9.316;2022-11-15T04:25:06;6.1;;;5.5;;
17949;SDS011;9100;48.700;9.316;2022-11-15T04:26:07;6.1;;;5.5;;
17949;SDS011;9100;48.700;9.316;2022-11-15T04:27:06;6.1;;;5.5;;
17949;SDS011;9100;48.700;9.316;2022-11-15T04:28:06;6.1;;;5.5;;
17949;SDS011;9100;48.700;9.316;2022-11-15T04:29:06;6.1;;;5.5;;
17949;SDS011;9100;48.700;9.316;2022-11-15T04:29:12;8;;;4.8;;
17949;SDS011;9100;48.700;9.316;2022-11-15T04:30:07;8;;;4.8;;
17949;SDS011;9100;48.700;9.316;2022-11-15T04:31:06;8;;;4.8;;
17949;SDS011;9100;48.700;9.316;2022-11-15T04:32:06;8;;;4.8;;
17949;SDS011;9100;48.700;9.316;2022-11-15T04:33:06;8;;;4.8;;
17949;SDS011;9100;48.700;9.316;2022-11-15T04:34:06;8;;;4.8;;
17949;SDS011;9100;48.700;9.316;2022-11-15T04:34:12;9.5;;;4.8;;
17949;SDS011;9100;48.700;9.316;2022-11-15T04:35:07;9.5;;;4.8;;
17949;SDS011;9100;48.700;9.316;2022-11-15T04:36:07;9.5;;;4.8;;
17949;SDS011;9100;48.700;9.316;2022-11-15T04:37:06;9.5;;;4.8;;
17949;SDS011;9100;48.700;9.316;2022-11-15T04:38:07;9.5;;;4.8;;
17949;SDS011;9100;48.700;9.316;2022-11-15T04:39:07;9.5;;;4.8;;
17949;SDS011;9100;48.700;9.316;2022-11-15T04:39:12;5.8;;;5.2;;
17949;SDS011;9100;48.700;9.316;2022-11-15T04:40:07;5.8;;;5.2;;
17949;SDS011;9100;48.700;9.316;2022-11-15T04:41:06;5.8;;;5.2;;
17949;SDS011;9100;48.700;9.316;2022-11-15T04:42:07;5.8;;;5.2;;
17949;SDS011;9100;48.700;9.316;2022-11-15T04:43:07;5.8;;;5.2;;
17949;SDS011;9100;48.700;9.316;2022-11-15T04:44:06;5.8;;;5.2;;
17949;SDS011;9100;48.700;9.316;2022-11-15T04:44:12;6.9;;;5.4;;
17949;SDS011;9100;48.700;9.316;2022-11-15T04:45:07;6.9;;;5.4;;
17949;SDS011;9100;48.700;9.316;2022-11-15T04:46:06;6.9;;;5.4;;
17949;SDS011;9100;48.700;9.316;2022-11-15T04:47:07;6.9;;;5.4;;
17949;SDS011;9100;48.700;9.316;2022-11-15T04:48:07;6.9;;;5.4;;
17949;SDS011;9100;48.700;9.316;2022-11-15T04:49:07;6.9;;;5.4;;
17949;SDS011;9100;48.700;9.316;2022-11-15T04:49:12;6.9;;;5.9;;
17949;SDS011;9100;48.700;9.316;2022-11-15T04:50:07;6.9;;;5.9;;
17949;SDS011;9100;48.700;9.316;2022-11-15T04:51:06;6.9;;;5.9;;
17949;SDS011;9100;48.700;9.316;2022-11-15T04:52:07;6.9;;;5.9;;
17949;SDS011;9100;48.700;9.316;2022-11-15T04:53:07;6.9;;;5.9;;
17949;SDS011;9100;48.700;9.316;2022-11-15T04:54:07;6.9;;;5.9;;
17949;SDS011;9100;48.700;9.316;2022-11-15T04:54:12;15.7;;;5.9;;
17949;SDS011;9100;48.700;9.316;2022-11-15T04:55:07;15.7;;;5.9;;
17949;SDS011;9100;48.700;9.316;2022-11-15T04:56:07;15.7;;;5.9;;
17949;SDS011;9100;48.700;9.316;2022-11-15T04:57:07;15.7;;;5.9;;
17949;SDS011;9100;48.700;9.316;2022-11-15T04:58:08;15.7;;;5.9;;
17949;SDS011;9100;48.700;9.316;2022-11-15T04:59:07;15.7;;;5.9;;
17949;SDS011;9100;48.700;9.316;2022-11-15T04:59:12;5.8;;;5.2;;
17949;SDS011;9100;48.700;9.316;2022-11-15T05:00:08;5.8;;;5.2;;
17949;SDS011;9100;48.700;9.316;2022-11-15T05:01:07;5.8;;;5.2;;
17949;SDS011;9100;48.700;9.316;2022-11-15T05:02:06;5.8;;;5.2;;
17949;SDS011;9100;48.700;9.316;2022-11-15T05:03:08;5.8;;;5.2;;
17949;SDS011;9100;48.700;9.316;2022-11-15T05:04:07;5.8;;;5.2;;
17949;SDS011;9100;48.700;9.316;2022-11-15T05:04:12;4.9;;;4.5;;
17949;SDS011;9100;48.700;9.316;2022-11-15T05:05:07;4.9;;;4.5;;
17949;SDS011;9100;48.700;9.316;2022-11-15T05:06:07;4.9;;;4.5;;
17949;SDS011;9100;48.700;9.316;2022-11-15T05:07:07;4.9;;;4.5;;
17949;SDS011;9100;48.700;9.316;2022-11-15T05:08:07;4.9;;;4.5;;
17949;SDS011;9100;48.700;9.316;2022-11-15T05:09:06;4.9;;;4.5;;
17949;SDS011;9100;48.700;9.316;2022-11-15T05:09:12;6.3;;;5.2;;
17949;SDS011;9100;48.700;9.316;2022-11-15T05:10:07;6.3;;;5.2;;
17949;SDS011;9100;48.700;9.316;2022-11-15T05:11:06;6.3;;;5.2;;
17949;SDS011;9100;48.700;9.316;2022-11-15T05:12:06;6.3;;;5.2;;
17949;SDS011;9100;48.700;9.316;2022-11-15T05:13:07;6.3;;;5.2;;
17949;SDS011;9100;48.700;9.316;2022-11-15T05:14:06;6.3;;;5.2;;
17949;SDS011;9100;48.700;9.316;2022-11-15T05:14:12;5.6;;;4.8;;
17949;SDS011;9100;48.700;9.316;2022-11-15T05:15:07;5.6;;;4.8;;
17949;SDS011;9100;48.700;9.316;2022-11-15T05:16:06;5.6;;;4.8;;
17949;SDS011;9100;48.700;9.316;2022-11-15T05:17:06;5.6;;;4.8;;